Main page
METAR-TAF:

Airports :

Waddington, England

RAF Waddington

latitude: 53-10N, longitude: 000-31W, elevation: 68 m

Current weather observation

The report was made 33 minutes ago, at 23:50 UTC
Wind 5 kt from the Northeast
Temperature 9°C
Humidity 87%
Pressure 1009 hPa
Visibility: 6000 m
Broken clouds at a height of 22000 ft
haze

METAR: EGXW 062350Z 05005KT 6000 HZ BKN220 09/07 Q1009 WHT

Time: 01:23 (00:23 UTC)

Forecast

The report was made 10 hours and 45 minutes ago, at 13:38 UTC
Forecast valid from 06 at 15 UTC to 06 at 21 UTC
Wind 8 kt from the East/Northeast
Visibility 10 km or more
no clouds below 1500 m and no cumulonimbus

TAF: EGXW 061338Z 0615/0621 07008KT CAVOK

METAR-TAF

Weather observations and forecasts of more than 4000 airports (METAR and TAF reports).

The available stations are represented by yellow and red dots on the map.

Hover mouse over dot to see the name of the station.

Then click to see weather observations and forecasts.

To change the map : click on the green buttons with a black cross to zoom in, on the green button with a dash to zoom out, or on the green arrows for adjacent maps.


METAR-TAF: